Aurillac Airport

LFLW · Auvergne-Rhône-Alpes, France

4 octobre 2022

Temps Code Temps Temp. Vue Base cloud Vent METAR/SPECI
20:30
V
15 °C 10 km+ - Var Var 2 kt METAR LFHP 041830Z AUTO VRB02KT CAVOK 15/09 Q1023
20:00
V
17 °C 10 km+ - Var Var 3 kt METAR LFHP 041800Z AUTO VRB03KT CAVOK 17/09 Q1023
19:30
V
17 °C 10 km+ - Var Var 2 kt METAR LFHP 041730Z AUTO VRB02KT CAVOK 17/10 Q1023
19:00
V
20 °C 10 km+ - 270° 270° 5 kt METAR LFHP 041700Z AUTO 27005KT 240V320 CAVOK 20/10 Q1022
18:30
V
23 °C 10 km+ - 250° 250° 3 kt METAR LFHP 041630Z AUTO 25003KT 210V300 CAVOK 23/11 Q1022
18:00
V
23 °C 10 km+ - Var Var 2 kt METAR LFHP 041600Z AUTO VRB02KT CAVOK 23/10 Q1022
17:30
V
23 °C 10 km+ - Var Var 2 kt METAR LFHP 041530Z AUTO VRB02KT CAVOK 23/10 Q1022
17:00
V
23 °C 10 km+ - Var Var 1 kt METAR LFHP 041500Z AUTO VRB01KT CAVOK 23/09 Q1022
16:30
V
24 °C 10 km+ - Var Var 2 kt METAR LFHP 041430Z AUTO VRB02KT CAVOK 24/11 Q1022
16:00
V
22 °C 10 km+ - Var Var 3 kt METAR LFHP 041400Z AUTO VRB03KT CAVOK 22/10 Q1022
15:30
V
22 °C 10 km+ - Var Var 3 kt METAR LFHP 041330Z AUTO VRB03KT CAVOK 22/09 Q1022
15:00
V
22 °C 10 km+ - Var Var 3 kt METAR LFHP 041300Z AUTO VRB03KT CAVOK 22/09 Q1022
14:30
V
21 °C 10 km+ - 360° 360° 3 kt METAR LFHP 041230Z AUTO 36003KT 310V040 CAVOK 21/09 Q1022
14:00
V
20 °C 10 km+ - Var Var 3 kt METAR LFHP 041200Z AUTO VRB03KT CAVOK 20/10 Q1023
13:30
V
19 °C 10 km+ - Var Var 3 kt METAR LFHP 041130Z AUTO VRB03KT CAVOK 19/12 Q1023
13:00
V
17 °C 10 km+ - 350° 350° 3 kt METAR LFHP 041100Z AUTO 35003KT 320V030 CAVOK 17/10 Q1023
12:30
V
15 °C 10 km+ - Var Var 2 kt METAR LFHP 041030Z AUTO VRB02KT CAVOK 15/10 Q1023
12:00
V
14 °C 10 km+ - Var Var 1 kt METAR LFHP 041000Z AUTO VRB01KT CAVOK 14/09 Q1023
11:30
V
13 °C 10 km+ - Var 000° 0 kt METAR LFHP 040930Z AUTO 00000KT CAVOK 13/09 Q1023
11:00
V
11 °C 10 km+ - Var 000° 0 kt METAR LFHP 040900Z AUTO 00000KT 9999 FEW005 11/09 Q1023
10:30
L
9 °C 10 km+ 400 ft Var Var 1 kt METAR LFHP 040830Z AUTO VRB01KT 9999 BKN004 09/07 Q1023
10:00
L
8 °C 10 km+ 400 ft Var Var 3 kt METAR LFHP 040800Z AUTO VRB03KT 9999 OVC004 08/07 Q1023
09:30
L
8 °C 10 km+ 400 ft Var Var 2 kt METAR LFHP 040730Z AUTO VRB02KT 9999 OVC004 08/07 Q1022
09:00
I
8 °C 10 km+ 500 ft Var Var 3 kt METAR LFHP 040700Z AUTO VRB03KT 9999 OVC005 08/07 Q1022

3 octobre 2022

Temps Code Temps Temp. Vue Base cloud Vent METAR/SPECI
21:00
M
13 °C 10 km+ 2.700 ft 060° 060° 5 kt METAR LFHP 031900Z AUTO 06005KT 9999 OVC027 13/10 Q1024
20:30
M
13 °C 10 km+ 2.600 ft Var Var 2 kt METAR LFHP 031830Z AUTO VRB02KT 9999 OVC026 13/10 Q1024
20:00
M
13 °C 10 km+ 2.800 ft Var Var 2 kt METAR LFHP 031800Z AUTO VRB02KT 9999 BKN028 13/09 Q1024
19:30
M
14 °C 10 km+ 2.800 ft 060° 060° 4 kt METAR LFHP 031730Z AUTO 06004KT 9999 OVC028 14/09 Q1023
19:00
M
15 °C 10 km+ 2.900 ft 050° 050° 3 kt METAR LFHP 031700Z AUTO 05003KT 9999 OVC029 15/09 Q1023
18:30
V
15 °C 10 km+ 3.000 ft 080° 080° 3 kt METAR LFHP 031630Z AUTO 08003KT 050V120 9999 OVC030 15/09 Q1024
18:00
M
15 °C 10 km+ 2.900 ft 050° 050° 5 kt METAR LFHP 031600Z AUTO 05005KT 020V080 9999 OVC029 15/10 Q1024
17:30
M
15 °C 10 km+ 2.800 ft 050° 050° 5 kt METAR LFHP 031530Z AUTO 05005KT 350V070 9999 OVC028 15/10 Q1024
17:00
M
15 °C 10 km+ 2.700 ft 040° 040° 6 kt METAR LFHP 031500Z AUTO 04006KT 9999 OVC027 15/09 Q1024
16:30
M
16 °C 10 km+ 2.700 ft 060° 060° 6 kt METAR LFHP 031430Z AUTO 06006KT 020V120 9999 OVC027 16/10 Q1024
16:00
M
15 °C 10 km+ 2.800 ft 050° 050° 8 kt METAR LFHP 031400Z AUTO 05008KT 010V070 9999 OVC028 15/10 Q1024
15:30
M
15 °C 10 km+ 2.800 ft 040° 040° 9 kt METAR LFHP 031330Z AUTO 04009KT 010V080 9999 OVC028 15/10 Q1024
15:00
M
15 °C 10 km+ 2.600 ft 030° 030° 8 kt METAR LFHP 031300Z AUTO 03008KT 9999 OVC026 15/10 Q1025
14:30
M
15 °C 10 km+ 2.800 ft 060° 060° 6 kt METAR LFHP 031230Z AUTO 06006KT 010V110 9999 OVC028 15/10 Q1025
14:00
M
15 °C 10 km+ 2.200 ft 060° 060° 7 kt METAR LFHP 031200Z AUTO 06007KT 030V090 9999 BKN022 OVC028 15/10 Q1025
13:30
M
15 °C 10 km+ 2.400 ft 070° 070° 6 kt METAR LFHP 031130Z AUTO 07006KT 030V110 9999 OVC024 15/10 Q1025
13:00
M
14 °C 10 km+ 2.000 ft 040° 040° 6 kt METAR LFHP 031100Z AUTO 04006KT 020V080 9999 BKN020 OVC026 14/10 Q1025
12:30
M
14 °C 10 km+ 2.000 ft 060° 060° 6 kt METAR LFHP 031030Z AUTO 06006KT 030V090 9999 OVC020 14/11 Q1025
12:00
M
14 °C 10 km+ 2.300 ft 050° 050° 6 kt METAR LFHP 031000Z AUTO 05006KT 360V080 9999 FEW015 OVC023 14/11 Q1025
11:30
M
13 °C 10 km+ 1.600 ft 040° 040° 6 kt METAR LFHP 030930Z AUTO 04006KT 360V060 9999 BKN016 OVC023 13/10 Q1026
11:00
M
13 °C 10 km+ 1.500 ft Var Var 3 kt METAR LFHP 030900Z AUTO VRB03KT 9999 BKN015 BKN021 OVC026 13/10 Q1026
10:30
M
13 °C 10 km+ 2.800 ft 010° 010° 5 kt METAR LFHP 030830Z AUTO 01005KT 9999 SCT018 OVC028 13/10 Q1026
10:00
M
13 °C 10 km+ 2.100 ft Var Var 2 kt METAR LFHP 030800Z AUTO VRB02KT 9999 BKN021 OVC027 13/10 Q1026
09:30
M
12 °C 10 km+ 2.800 ft Var Var 3 kt METAR LFHP 030730Z AUTO VRB03KT 9999 OVC028 12/10 Q1025
09:00
M
12 °C 10 km+ 2.700 ft Var Var 2 kt METAR LFHP 030700Z AUTO VRB02KT 9999 OVC027 12/10 Q1025

2 octobre 2022

Temps Code Temps Temp. Vue Base cloud Vent METAR/SPECI
21:00
V
13 °C 10 km+ - 280° 280° 6 kt METAR LFHP 021900Z AUTO 28006KT 250V310 CAVOK 13/09 Q1026
20:30
V
13 °C 10 km+ - 280° 280° 5 kt METAR LFHP 021830Z AUTO 28005KT 240V310 CAVOK 13/09 Q1026
20:00
V
14 °C 10 km+ - 290° 290° 4 kt METAR LFHP 021800Z AUTO 29004KT 250V320 CAVOK 14/09 Q1026
19:30
V
15 °C 10 km+ - 290° 290° 5 kt METAR LFHP 021730Z AUTO 29005KT CAVOK 15/10 Q1025
19:00
V
16 °C 10 km+ - 310° 310° 6 kt METAR LFHP 021700Z AUTO 31006KT CAVOK 16/09 Q1026
18:30
V
17 °C 10 km+ - 310° 310° 7 kt METAR LFHP 021630Z AUTO 31007KT CAVOK 17/10 Q1025
18:00
V
18 °C 10 km+ - 300° 300° 10 kt METAR LFHP 021600Z AUTO 30010KT 260V330 CAVOK 18/10 Q1025
17:30
V
19 °C 10 km+ - 300° 300° 9 kt METAR LFHP 021530Z AUTO 30009KT 260V320 CAVOK 19/09 Q1025
17:00
V
18 °C 10 km+ - 290° 290° 8 kt METAR LFHP 021500Z AUTO 29008KT 240V320 CAVOK 18/09 Q1026
Données plus anciennes

Nous et des tiers suivons ton comportement sur Internet sur notre site Web à l'aide de cookies. Si tu continues, nous supposons que tu acceptes notre politique en matière de cookies. Apprendre plus